createdAt,value
2018-01-08T00:00:39.112Z,12.50
2018-01-08T00:01:42.064Z,13.50
2018-01-08T00:02:45.062Z,11.00
2018-01-08T00:03:48.641Z,14.00
2018-01-08T00:04:51.598Z,9.00
2018-01-08T00:05:54.546Z,10.00
2018-01-08T00:06:57.653Z,10.00
2018-01-08T00:08:00.685Z,12.50
2018-01-08T00:09:03.685Z,12.00
2018-01-08T00:10:07.136Z,10.00
2018-01-08T00:11:10.067Z,10.50
2018-01-08T00:12:13.004Z,11.00
2018-01-08T00:13:15.957Z,8.50
2018-01-08T00:14:18.952Z,10.50
2018-01-08T00:15:22.002Z,10.00
2018-01-08T00:16:25.359Z,13.50
2018-01-08T00:17:28.292Z,11.50
2018-01-08T00:18:31.215Z,8.50
2018-01-08T00:19:34.188Z,10.00
2018-01-08T00:20:37.090Z,10.00
2018-01-08T00:21:40.020Z,10.50
2018-01-08T00:22:43.378Z,10.50
2018-01-08T00:23:46.335Z,13.50
2018-01-08T00:24:49.279Z,10.50
2018-01-08T00:25:52.197Z,10.00
2018-01-08T00:26:55.110Z,9.00
2018-01-08T00:27:59.358Z,12.00
2018-01-08T00:29:02.643Z,10.00
2018-01-08T00:30:05.698Z,12.00
2018-01-08T00:31:08.629Z,10.00
2018-01-08T00:32:11.561Z,13.50
2018-01-08T00:33:14.527Z,9.50
2018-01-08T00:34:17.559Z,10.00
2018-01-08T00:35:20.878Z,11.50
2018-01-08T00:36:23.949Z,11.50
2018-01-08T00:37:26.921Z,12.00
2018-01-08T00:38:29.968Z,8.50
2018-01-08T00:39:33.049Z,11.50
2018-01-08T00:40:35.996Z,13.50
2018-01-08T00:41:39.335Z,10.50
2018-01-08T00:42:42.344Z,10.50
2018-01-08T00:43:45.288Z,13.00
2018-01-08T00:44:49.314Z,10.50
2018-01-08T00:45:52.246Z,10.00
2018-01-08T00:46:55.219Z,6.00
2018-01-08T00:47:58.490Z,11.00
2018-01-08T00:49:01.384Z,10.00
2018-01-08T00:50:04.222Z,12.00
2018-01-08T00:51:07.067Z,8.00
2018-01-08T00:52:09.988Z,8.00
2018-01-08T00:53:12.894Z,14.00
2018-01-08T00:54:16.196Z,11.50
2018-01-08T00:55:19.089Z,10.50
2018-01-08T00:56:22.423Z,10.50
2018-01-08T00:57:25.308Z,10.50
2018-01-08T00:58:28.205Z,12.00
2018-01-08T00:59:31.098Z,10.50
2018-01-08T01:00:34.544Z,10.50
2018-01-08T01:01:37.738Z,11.50
2018-01-08T01:02:40.668Z,14.00
2018-01-08T01:03:43.650Z,6.00
2018-01-08T01:04:46.594Z,15.00
2018-01-08T01:05:49.537Z,7.50
2018-01-08T01:06:52.796Z,14.00
2018-01-08T01:07:55.719Z,9.50
2018-01-08T01:08:58.738Z,13.00
2018-01-08T01:10:01.681Z,12.50
2018-01-08T01:11:04.699Z,9.50
2018-01-08T01:12:07.656Z,11.50
2018-01-08T01:13:11.045Z,17.00
2018-01-08T01:14:14.929Z,11.50
2018-01-08T01:15:17.928Z,10.00
2018-01-08T01:16:20.906Z,10.00
2018-01-08T01:17:23.882Z,11.50
2018-01-08T01:18:26.861Z,12.00
2018-01-08T01:19:30.097Z,10.00
2018-01-08T01:20:33.020Z,9.00
2018-01-08T01:21:35.951Z,12.50
2018-01-08T01:22:38.895Z,10.00
2018-01-08T01:23:41.837Z,10.00
2018-01-08T01:24:44.787Z,10.00
2018-01-08T01:25:47.748Z,10.00
2018-01-08T01:26:50.686Z,8.00
2018-01-08T01:27:53.584Z,8.50
2018-01-08T01:28:56.520Z,10.00
2018-01-08T01:29:59.444Z,8.00
2018-01-08T01:31:02.876Z,10.00
2018-01-08T01:32:05.889Z,10.00
2018-01-08T01:33:08.820Z,9.50
2018-01-08T01:34:11.743Z,8.00
2018-01-08T01:35:14.674Z,8.00
2018-01-08T01:36:17.610Z,10.00
2018-01-08T01:37:20.894Z,11.50
2018-01-08T01:38:23.752Z,13.00
2018-01-08T01:39:26.686Z,10.00
2018-01-08T01:40:29.600Z,13.50
2018-01-08T01:41:32.619Z,13.50
2018-01-08T01:42:35.534Z,8.50
2018-01-08T01:43:38.799Z,15.50
2018-01-08T01:44:41.706Z,8.50
2018-01-08T01:45:44.614Z,13.00
2018-01-08T01:46:47.574Z,9.00
2018-01-08T01:47:50.537Z,10.00
2018-01-08T01:48:53.496Z,9.00
2018-01-08T01:49:56.858Z,6.00
2018-01-08T01:51:00.782Z,9.50
2018-01-08T01:52:03.745Z,6.50
2018-01-08T01:53:06.782Z,12.00
2018-01-08T01:54:09.754Z,8.00
2018-01-08T01:55:12.702Z,10.50
2018-01-08T01:56:15.614Z,9.00
2018-01-08T01:57:18.619Z,11.00
2018-01-08T01:58:21.585Z,9.50
2018-01-08T01:59:24.727Z,12.50
2018-01-08T02:00:27.698Z,10.50
2018-01-08T02:01:30.593Z,8.00
2018-01-08T02:02:34.277Z,13.00
2018-01-08T02:03:37.289Z,10.00
2018-01-08T02:04:40.254Z,12.50
2018-01-08T02:05:43.194Z,10.00
2018-01-08T02:06:46.110Z,12.00
2018-01-08T02:07:49.088Z,10.00
2018-01-08T02:08:52.454Z,17.00
2018-01-08T02:09:55.404Z,15.00
2018-01-08T02:10:58.292Z,10.00
2018-01-08T02:12:01.165Z,7.50
2018-01-08T02:13:04.056Z,9.00
2018-01-08T02:14:06.978Z,10.00
2018-01-08T02:15:10.272Z,10.00
2018-01-08T02:16:13.225Z,12.00
2018-01-08T02:17:16.161Z,12.50
2018-01-08T02:18:19.084Z,12.00
2018-01-08T02:19:22.037Z,8.00
2018-01-08T02:20:24.991Z,10.00
2018-01-08T02:21:28.356Z,8.00
2018-01-08T02:22:32.255Z,13.50
2018-01-08T02:23:35.201Z,10.00
2018-01-08T02:24:38.119Z,9.00
2018-01-08T02:25:41.054Z,16.00
2018-01-08T02:26:43.960Z,12.00
2018-01-08T02:27:47.310Z,8.50
2018-01-08T02:28:50.262Z,8.50
2018-01-08T02:29:53.221Z,7.00
2018-01-08T02:30:56.212Z,10.00
2018-01-08T02:31:59.147Z,16.00
2018-01-08T02:33:02.183Z,12.50
2018-01-08T02:34:05.603Z,9.50
2018-01-08T02:35:08.570Z,10.00
2018-01-08T02:36:11.548Z,12.50
2018-01-08T02:37:15.647Z,9.00
2018-01-08T02:38:18.603Z,10.00
2018-01-08T02:39:21.574Z,10.00
2018-01-08T02:40:24.842Z,12.50
2018-01-08T02:41:27.782Z,9.50
2018-01-08T02:42:30.658Z,14.50
2018-01-08T02:43:33.715Z,7.50
2018-01-08T02:44:36.693Z,9.50
2018-01-08T02:45:39.712Z,12.00
2018-01-08T02:46:42.988Z,12.00
2018-01-08T02:47:45.927Z,12.00
2018-01-08T02:48:48.929Z,10.00
2018-01-08T02:49:51.927Z,10.00
2018-01-08T02:50:54.880Z,13.50
2018-01-08T02:51:57.815Z,7.00
2018-01-08T02:53:01.210Z,13.50
2018-01-08T02:54:04.184Z,4.50
2018-01-08T02:55:07.143Z,10.00
2018-01-08T02:56:10.129Z,8.00
2018-01-08T02:57:13.072Z,16.00
2018-01-08T02:58:15.925Z,10.00
2018-01-08T02:59:19.422Z,10.00
2018-01-08T03:00:22.274Z,7.00
2018-01-08T03:01:25.176Z,12.00
2018-01-08T03:02:28.126Z,11.00
2018-01-08T03:03:31.065Z,10.00
2018-01-08T03:04:34.337Z,10.00
2018-01-08T03:05:37.747Z,9.50
2018-01-08T03:06:40.725Z,16.50
2018-01-08T03:07:43.669Z,11.50
2018-01-08T03:08:46.609Z,9.00
2018-01-08T03:09:50.412Z,10.50
2018-01-08T03:10:53.381Z,11.50
2018-01-08T03:11:56.844Z,8.50
2018-01-08T03:12:59.812Z,8.00
2018-01-08T03:14:02.828Z,9.50
2018-01-08T03:15:05.767Z,10.00
2018-01-08T03:16:08.665Z,9.50
2018-01-08T03:17:11.538Z,9.50
2018-01-08T03:18:14.912Z,7.00
2018-01-08T03:19:17.877Z,7.00
2018-01-08T03:20:20.838Z,13.00
2018-01-08T03:21:23.869Z,12.50
2018-01-08T03:22:26.816Z,12.00
2018-01-08T03:23:29.753Z,12.00
2018-01-08T03:24:33.145Z,14.50
2018-01-08T03:25:36.182Z,11.00
2018-01-08T03:26:39.116Z,9.00
2018-01-08T03:27:42.056Z,11.50
2018-01-08T03:28:44.941Z,10.50
2018-01-08T03:29:47.921Z,11.50
2018-01-08T03:30:50.883Z,12.00
2018-01-08T03:31:53.812Z,8.00
2018-01-08T03:32:56.770Z,9.00
2018-01-08T03:33:59.713Z,11.50
2018-01-08T03:35:02.685Z,6.50
2018-01-08T03:36:05.658Z,10.50
2018-01-08T03:37:09.057Z,5.50
2018-01-08T03:38:12.011Z,10.50
2018-01-08T03:39:15.163Z,15.00
2018-01-08T03:40:18.094Z,14.00
2018-01-08T03:41:21.067Z,11.00
2018-01-08T03:42:24.037Z,10.50
2018-01-08T03:43:27.348Z,9.50
2018-01-08T03:44:30.304Z,14.00
2018-01-08T03:45:33.325Z,14.50
2018-01-08T03:46:36.280Z,12.00
2018-01-08T03:47:40.109Z,8.00
2018-01-08T03:48:43.065Z,11.50
2018-01-08T03:49:46.403Z,12.00
2018-01-08T03:50:49.671Z,11.50
2018-01-08T03:51:52.620Z,16.00
2018-01-08T03:52:55.545Z,13.00
2018-01-08T03:53:58.503Z,10.00
2018-01-08T03:55:01.464Z,16.00
2018-01-08T03:56:04.887Z,10.50
2018-01-08T03:57:07.861Z,11.00
2018-01-08T03:58:10.850Z,14.50
2018-01-08T03:59:13.778Z,12.50
2018-01-08T04:00:17.968Z,14.00
2018-01-08T04:01:20.838Z,11.50
2018-01-08T04:02:24.336Z,12.50
2018-01-08T04:03:27.167Z,12.00
2018-01-08T04:04:29.958Z,16.50
2018-01-08T04:05:32.753Z,8.50
2018-01-08T04:06:35.556Z,9.50
2018-01-08T04:07:38.343Z,14.00
2018-01-08T04:08:41.502Z,10.50
2018-01-08T04:09:44.471Z,13.50
2018-01-08T04:10:47.429Z,10.50
2018-01-08T04:11:50.359Z,10.00
2018-01-08T04:12:53.313Z,16.00
2018-01-08T04:13:56.242Z,12.50
2018-01-08T04:14:59.702Z,13.00
2018-01-08T04:16:02.716Z,11.50
2018-01-08T04:17:06.878Z,12.00
2018-01-08T04:18:09.840Z,12.50
2018-01-08T04:19:12.775Z,11.50
2018-01-08T04:20:15.689Z,10.00
2018-01-08T04:21:19.111Z,11.50
2018-01-08T04:22:22.068Z,9.50
2018-01-08T04:23:25.007Z,8.50
2018-01-08T04:24:27.945Z,12.00
2018-01-08T04:25:30.900Z,13.00
2018-01-08T04:26:33.852Z,10.00
2018-01-08T04:27:37.239Z,10.00
2018-01-08T04:28:40.209Z,13.50
2018-01-08T04:29:43.273Z,13.00
2018-01-08T04:30:46.284Z,8.50
2018-01-08T04:31:49.242Z,12.50
2018-01-08T04:32:52.202Z,15.50
2018-01-08T04:33:56.596Z,10.50
2018-01-08T04:34:59.527Z,17.50
2018-01-08T04:36:02.618Z,11.50
2018-01-08T04:37:05.620Z,11.50
2018-01-08T04:38:08.630Z,14.00
2018-01-08T04:39:11.593Z,12.00
2018-01-08T04:40:14.929Z,12.00
2018-01-08T04:41:17.857Z,16.00
2018-01-08T04:42:20.794Z,10.00
2018-01-08T04:43:23.727Z,12.50
2018-01-08T04:44:26.662Z,12.00
2018-01-08T04:45:29.609Z,14.00
2018-01-08T04:46:33.921Z,14.00
2018-01-08T04:47:36.844Z,16.50
2018-01-08T04:48:39.730Z,13.00
2018-01-08T04:49:42.617Z,10.50
2018-01-08T04:50:45.527Z,12.00
2018-01-08T04:51:49.398Z,15.50
2018-01-08T04:52:52.741Z,9.50
2018-01-08T04:53:55.701Z,10.00
2018-01-08T04:54:58.629Z,13.00
2018-01-08T04:56:01.607Z,14.50
2018-01-08T04:57:04.549Z,11.50
2018-01-08T04:58:07.534Z,16.00
2018-01-08T04:59:10.825Z,14.00
2018-01-08T05:00:13.745Z,10.00
2018-01-08T05:01:16.621Z,12.50
2018-01-08T05:02:19.523Z,14.00
2018-01-08T05:03:22.417Z,14.00
2018-01-08T05:04:25.283Z,8.00
2018-01-08T05:05:28.225Z,16.00
2018-01-08T05:06:31.173Z,12.00
2018-01-08T05:07:34.104Z,17.50
2018-01-08T05:08:37.106Z,10.00
2018-01-08T05:09:39.987Z,13.00
2018-01-08T05:10:42.821Z,12.00
2018-01-08T05:11:45.668Z,10.00
2018-01-08T05:12:48.593Z,11.00
2018-01-08T05:13:51.529Z,16.00
2018-01-08T05:14:55.380Z,15.50
2018-01-08T05:15:59.317Z,20.50
2018-01-08T05:17:02.609Z,15.50
2018-01-08T05:18:05.610Z,18.00
2018-01-08T05:19:08.648Z,13.50
2018-01-08T05:20:11.572Z,15.50
2018-01-08T05:21:14.940Z,13.00
2018-01-08T05:22:17.914Z,10.00
2018-01-08T05:23:21.263Z,13.00
2018-01-08T05:24:24.253Z,22.00
2018-01-08T05:25:27.207Z,20.00
2018-01-08T05:26:31.199Z,16.00
2018-01-08T05:27:34.338Z,13.50
2018-01-08T05:28:37.284Z,15.50
2018-01-08T05:29:40.572Z,20.00
2018-01-08T05:30:43.457Z,18.50
2018-01-08T05:31:46.405Z,17.50
2018-01-08T05:32:49.382Z,11.50
2018-01-08T05:33:52.304Z,12.00
2018-01-08T05:34:55.244Z,13.00
2018-01-08T05:35:58.594Z,16.50
2018-01-08T05:37:01.559Z,11.50
2018-01-08T05:38:04.529Z,13.00
2018-01-08T05:39:07.575Z,14.50
2018-01-08T05:40:10.588Z,13.00
2018-01-08T05:41:13.568Z,13.50
2018-01-08T05:42:16.985Z,16.00
2018-01-08T05:43:19.937Z,16.50
2018-01-08T05:44:22.920Z,16.50
2018-01-08T05:45:25.853Z,12.50
2018-01-08T05:46:28.848Z,16.00
2018-01-08T05:47:31.956Z,12.00
2018-01-08T05:48:35.288Z,19.00
2018-01-08T05:49:38.231Z,13.50
2018-01-08T05:50:41.184Z,25.00
2018-01-08T05:51:44.106Z,16.00
2018-01-08T05:52:47.124Z,17.00
2018-01-08T05:53:50.087Z,27.50
2018-01-08T05:54:53.003Z,17.00
2018-01-08T05:55:56.152Z,20.50
2018-01-08T05:56:59.123Z,15.50
2018-01-08T05:58:02.078Z,12.00
2018-01-08T05:59:05.034Z,15.50
2018-01-08T06:00:08.474Z,18.00
2018-01-08T06:01:11.431Z,17.50
2018-01-08T06:02:14.356Z,20.50
2018-01-08T06:03:17.338Z,17.00
2018-01-08T06:04:20.300Z,15.00
2018-01-08T06:05:23.221Z,16.00
2018-01-08T06:06:27.454Z,17.50
2018-01-08T06:07:30.402Z,17.00
2018-01-08T06:08:33.752Z,19.00
2018-01-08T06:09:36.714Z,20.00
2018-01-08T06:10:39.721Z,18.50
2018-01-08T06:11:42.729Z,16.00
2018-01-08T06:12:46.064Z,13.50
2018-01-08T06:13:49.030Z,17.00
2018-01-08T06:14:51.990Z,15.00
2018-01-08T06:15:54.970Z,15.50
2018-01-08T06:16:57.858Z,18.00
2018-01-08T06:18:00.858Z,12.50
2018-01-08T06:19:04.309Z,17.50
2018-01-08T06:20:07.252Z,16.50
2018-01-08T06:21:10.237Z,20.50
2018-01-08T06:22:13.281Z,18.00
2018-01-08T06:23:16.375Z,12.00
2018-01-08T06:24:19.465Z,16.00
2018-01-08T06:25:23.710Z,15.00
2018-01-08T06:26:26.687Z,14.00
2018-01-08T06:27:29.650Z,13.50
2018-01-08T06:28:32.658Z,17.50
2018-01-08T06:29:35.634Z,13.50
2018-01-08T06:30:38.663Z,11.50
2018-01-08T06:31:42.053Z,10.00
2018-01-08T06:32:45.034Z,14.00
2018-01-08T06:33:47.984Z,15.00
2018-01-08T06:34:51.816Z,17.00
2018-01-08T06:35:54.776Z,20.00
2018-01-08T06:36:57.838Z,16.00
2018-01-08T06:38:01.158Z,16.00
2018-01-08T06:39:04.191Z,28.00
2018-01-08T06:40:07.176Z,18.00
2018-01-08T06:41:10.147Z,18.00
2018-01-08T06:42:13.086Z,17.50
2018-01-08T06:43:16.067Z,16.50
2018-01-08T06:44:19.409Z,16.50
2018-01-08T06:45:22.364Z,23.50
2018-01-08T06:46:25.315Z,20.00
2018-01-08T06:47:28.352Z,14.00
2018-01-08T06:48:31.280Z,16.50
2018-01-08T06:49:34.212Z,16.00
2018-01-08T06:50:38.329Z,18.00
2018-01-08T06:51:41.263Z,15.00
2018-01-08T06:52:44.253Z,14.50
2018-01-08T06:53:47.226Z,12.00
2018-01-08T06:54:50.196Z,15.00
2018-01-08T06:55:53.174Z,15.50
2018-01-08T06:56:56.432Z,24.00
2018-01-08T06:57:59.454Z,22.50
2018-01-08T06:59:02.427Z,16.50
2018-01-08T07:00:05.341Z,19.00
2018-01-08T07:01:08.356Z,18.00
2018-01-08T07:02:11.297Z,19.00
2018-01-08T07:03:14.764Z,14.00
2018-01-08T07:04:17.865Z,18.50
2018-01-08T07:05:21.171Z,17.00
2018-01-08T07:06:24.113Z,20.00
2018-01-08T07:07:27.130Z,19.00
2018-01-08T07:08:30.991Z,16.50
2018-01-08T07:09:34.477Z,16.50
2018-01-08T07:10:37.743Z,16.50
2018-01-08T07:11:40.713Z,14.00
2018-01-08T07:12:43.705Z,18.00
2018-01-08T07:13:46.732Z,15.50
2018-01-08T07:14:49.589Z,16.00
2018-01-08T07:15:52.731Z,20.00
2018-01-08T07:16:55.790Z,21.50
2018-01-08T07:17:58.802Z,14.50
2018-01-08T07:19:01.756Z,19.50
2018-01-08T07:20:04.748Z,30.00
2018-01-08T07:21:08.042Z,16.50
2018-01-08T07:22:11.102Z,16.00
2018-01-08T07:23:14.064Z,15.50
2018-01-08T07:24:17.072Z,15.00
2018-01-08T07:25:20.012Z,16.50
2018-01-08T07:26:23.025Z,16.00
2018-01-08T07:27:26.414Z,17.00
2018-01-08T07:28:29.377Z,16.00
2018-01-08T07:29:32.422Z,24.00
2018-01-08T07:30:35.366Z,23.50
2018-01-08T07:31:38.311Z,17.00
2018-01-08T07:32:41.252Z,17.00
2018-01-08T07:33:44.762Z,17.00
2018-01-08T07:34:47.753Z,17.50
2018-01-08T07:35:50.630Z,13.50
2018-01-08T07:36:53.654Z,16.00
2018-01-08T07:37:56.572Z,12.00
2018-01-08T07:38:59.631Z,22.00
2018-01-08T07:40:02.985Z,28.00
2018-01-08T07:41:07.970Z,22.50
2018-01-08T07:42:11.050Z,19.50
2018-01-08T07:43:14.040Z,20.00
2018-01-08T07:44:17.015Z,17.50
2018-01-08T07:45:20.052Z,15.00
2018-01-08T07:46:23.418Z,15.50
2018-01-08T07:47:26.523Z,26.00
2018-01-08T07:48:29.514Z,20.50
2018-01-08T07:49:32.549Z,15.50
2018-01-08T07:50:35.492Z,14.50
2018-01-08T07:51:41.087Z,22.00
2018-01-08T07:52:44.522Z,15.00
2018-01-08T07:53:47.523Z,15.00
2018-01-08T07:54:50.475Z,16.50
2018-01-08T07:55:54.447Z,16.50
2018-01-08T07:56:57.462Z,16.50
2018-01-08T07:58:00.401Z,27.50
2018-01-08T07:59:03.793Z,17.00
2018-01-08T08:00:06.752Z,16.50
2018-01-08T08:01:09.703Z,27.50
2018-01-08T08:02:12.761Z,14.00
2018-01-08T08:03:22.322Z,16.50
2018-01-08T08:04:26.875Z,18.50
2018-01-08T08:05:30.466Z,15.50
2018-01-08T08:06:33.500Z,16.00
2018-01-08T08:07:36.604Z,18.50
2018-01-08T08:08:39.534Z,19.50
2018-01-08T08:09:42.554Z,18.00
2018-01-08T08:10:45.502Z,14.00
2018-01-08T08:11:48.889Z,20.50
2018-01-08T08:12:51.866Z,15.00
2018-01-08T08:13:54.905Z,16.50
2018-01-08T08:14:57.915Z,19.00
2018-01-08T08:16:00.895Z,14.00
2018-01-08T08:17:05.401Z,14.00
2018-01-08T08:18:08.740Z,21.00
2018-01-08T08:19:13.031Z,22.50
2018-01-08T08:20:16.033Z,16.00
2018-01-08T08:21:18.987Z,14.50
2018-01-08T08:22:21.949Z,20.50
2018-01-08T08:23:24.932Z,15.00
2018-01-08T08:24:28.209Z,21.50
2018-01-08T08:25:31.178Z,18.00
2018-01-08T08:26:34.161Z,13.00
2018-01-08T08:27:37.831Z,23.50
2018-01-08T08:28:40.772Z,22.00
2018-01-08T08:29:43.727Z,23.50
2018-01-08T08:30:47.135Z,18.50
2018-01-08T08:31:50.079Z,17.50
2018-01-08T08:32:53.036Z,16.00
2018-01-08T08:33:55.995Z,18.50
2018-01-08T08:34:58.888Z,15.00
2018-01-08T08:36:01.867Z,16.00
2018-01-08T08:37:05.245Z,19.00
2018-01-08T08:38:08.183Z,19.50
2018-01-08T08:39:11.066Z,19.00
2018-01-08T08:40:14.086Z,18.00
2018-01-08T08:41:17.059Z,18.50
2018-01-08T08:42:20.163Z,22.00
2018-01-08T08:43:23.669Z,18.00
2018-01-08T08:44:26.668Z,24.50
2018-01-08T08:45:29.616Z,18.00
2018-01-08T08:46:33.841Z,13.00
2018-01-08T08:47:36.844Z,22.00
2018-01-08T08:48:39.785Z,14.00
2018-01-08T08:49:43.022Z,19.00
2018-01-08T08:50:45.914Z,17.50
2018-01-08T08:51:48.830Z,22.00
2018-01-08T08:52:52.264Z,21.00
2018-01-08T08:53:55.863Z,23.50
2018-01-08T08:54:58.844Z,16.00
2018-01-08T08:56:02.125Z,18.00
2018-01-08T08:57:05.126Z,20.00
2018-01-08T08:58:08.584Z,16.50
2018-01-08T08:59:11.837Z,19.50
2018-01-08T09:00:14.858Z,28.00
2018-01-08T09:01:17.855Z,23.00
2018-01-08T09:02:21.500Z,18.50
2018-01-08T09:03:24.496Z,18.00
2018-01-08T09:04:27.534Z,16.00
2018-01-08T09:05:30.507Z,17.50
2018-01-08T09:06:33.525Z,17.00
2018-01-08T09:07:36.488Z,13.00
2018-01-08T09:08:39.939Z,15.50
2018-01-08T09:09:42.862Z,22.50
2018-01-08T09:10:45.795Z,22.00
2018-01-08T09:11:48.954Z,31.00
2018-01-08T09:12:51.868Z,13.50
2018-01-08T09:13:54.766Z,12.00
2018-01-08T09:14:58.222Z,11.50
2018-01-08T09:16:01.174Z,16.50
2018-01-08T09:17:04.166Z,17.50
2018-01-08T09:18:07.514Z,15.00
2018-01-08T09:19:10.580Z,16.50
2018-01-08T09:20:13.564Z,18.50
2018-01-08T09:21:16.958Z,17.00
2018-01-08T09:22:19.954Z,21.00
2018-01-08T09:23:22.925Z,17.00
2018-01-08T09:24:25.856Z,18.50
2018-01-08T09:25:28.892Z,15.50
2018-01-08T09:26:31.840Z,16.50
2018-01-08T09:27:35.302Z,27.50
2018-01-08T09:28:38.307Z,14.50
2018-01-08T09:29:41.310Z,12.50
2018-01-08T09:30:44.305Z,21.50
2018-01-08T09:31:47.316Z,18.50
2018-01-08T09:32:50.305Z,13.50
2018-01-08T09:33:53.746Z,16.50
2018-01-08T09:34:56.684Z,20.00
2018-01-08T09:35:59.713Z,23.50
2018-01-08T09:37:02.716Z,21.00
2018-01-08T09:38:05.837Z,18.50
2018-01-08T09:39:08.869Z,17.00
2018-01-08T09:40:12.178Z,14.50
2018-01-08T09:41:15.174Z,16.50
2018-01-08T09:42:18.320Z,16.00
2018-01-08T09:43:21.308Z,18.00
2018-01-08T09:44:24.434Z,13.50
2018-01-08T09:45:28.188Z,18.00
2018-01-08T09:46:33.281Z,18.50
2018-01-08T09:47:37.637Z,18.00
2018-01-08T09:48:42.933Z,30.00
2018-01-08T09:49:46.340Z,20.50
2018-01-08T09:50:50.388Z,22.00
2018-01-08T09:51:53.903Z,19.50
2018-01-08T09:52:57.385Z,18.00
2018-01-08T09:54:00.324Z,20.00
2018-01-08T09:55:03.302Z,19.00
2018-01-08T09:56:06.273Z,18.00
2018-01-08T09:57:09.294Z,16.00
2018-01-08T09:58:12.251Z,19.00
2018-01-08T09:59:15.635Z,20.00
2018-01-08T10:00:18.686Z,21.00
2018-01-08T10:01:23.619Z,23.00
2018-01-08T10:02:26.837Z,18.00
2018-01-08T10:03:29.793Z,23.50
2018-01-08T10:04:32.882Z,21.00
2018-01-08T10:05:37.023Z,18.00
2018-01-08T10:06:41.109Z,18.50
2018-01-08T10:07:44.140Z,15.00
2018-01-08T10:08:47.181Z,19.00
2018-01-08T10:09:50.150Z,20.50
2018-01-08T10:10:53.691Z,20.00
2018-01-08T10:11:57.855Z,21.00
2018-01-08T10:13:00.834Z,22.00
2018-01-08T10:14:04.039Z,20.00
2018-01-08T10:15:07.071Z,20.00
2018-01-08T10:16:11.294Z,18.00
2018-01-08T10:17:14.535Z,20.50
2018-01-08T10:18:17.802Z,20.00
2018-01-08T10:19:20.735Z,26.00
2018-01-08T10:20:23.679Z,20.50
2018-01-08T10:21:26.640Z,16.50
2018-01-08T10:22:29.485Z,18.00
2018-01-08T10:23:32.494Z,21.50
2018-01-08T10:24:35.807Z,16.50
2018-01-08T10:25:38.876Z,15.00
2018-01-08T10:26:41.784Z,17.50
2018-01-08T10:27:44.854Z,18.00
2018-01-08T10:28:51.300Z,16.00
2018-01-08T10:29:54.252Z,19.50
2018-01-08T10:30:57.655Z,17.50
2018-01-08T10:32:00.661Z,15.50
2018-01-08T10:33:04.151Z,18.00
2018-01-08T10:34:09.072Z,18.00
2018-01-08T10:35:12.522Z,18.50
2018-01-08T10:36:15.463Z,17.00
2018-01-08T10:37:18.382Z,20.50
2018-01-08T10:38:21.552Z,38.50
2018-01-08T10:39:25.382Z,22.00
2018-01-08T10:40:29.001Z,19.50
2018-01-08T10:41:36.971Z,16.00
2018-01-08T10:42:44.767Z,18.00
2018-01-08T10:43:56.469Z,16.00
2018-01-08T10:45:04.581Z,14.50
2018-01-08T10:46:13.594Z,18.50
2018-01-08T10:47:22.144Z,16.00
2018-01-08T10:48:30.927Z,15.00
2018-01-08T10:49:38.627Z,17.50
2018-01-08T10:50:46.557Z,16.00
2018-01-08T10:51:48.172Z,24.00
2018-01-08T10:52:51.567Z,18.50
2018-01-08T10:53:54.768Z,17.50
2018-01-08T10:54:57.912Z,17.50
2018-01-08T10:56:00.851Z,18.00
2018-01-08T10:57:04.998Z,20.00
2018-01-08T10:58:07.981Z,20.50
2018-01-08T10:59:10.935Z,24.00
2018-01-08T11:00:14.276Z,23.00
2018-01-08T11:01:21.251Z,30.00
2018-01-08T11:02:29.053Z,18.00
2018-01-08T11:04:03.556Z,17.50
2018-01-08T11:05:06.524Z,15.00
2018-01-08T11:06:09.517Z,14.00
2018-01-08T11:07:12.500Z,23.50
2018-01-08T11:08:15.505Z,22.50
2018-01-08T11:09:19.782Z,18.50
2018-01-08T11:10:23.160Z,22.00
2018-01-08T11:11:26.154Z,25.00
2018-01-08T11:12:29.162Z,21.50
2018-01-08T11:13:32.095Z,18.00
2018-01-08T11:14:35.492Z,20.00
2018-01-08T11:15:39.478Z,16.00
2018-01-08T11:16:42.859Z,19.00
2018-01-08T11:17:47.637Z,20.50
2018-01-08T11:18:50.581Z,17.00
2018-01-08T11:19:54.546Z,14.50
2018-01-08T11:20:57.546Z,17.00
2018-01-08T11:22:00.598Z,18.00
2018-01-08T11:23:04.844Z,14.50
2018-01-08T11:24:07.875Z,22.50
2018-01-08T11:25:10.854Z,20.50
2018-01-08T11:26:13.808Z,20.00
2018-01-08T11:27:16.816Z,15.00
2018-01-08T11:28:19.808Z,19.50
2018-01-08T11:29:23.117Z,27.50
2018-01-08T11:30:26.140Z,18.00
2018-01-08T11:31:29.082Z,16.50
2018-01-08T11:32:32.083Z,19.00
2018-01-08T11:33:35.118Z,18.00
2018-01-08T11:34:38.085Z,17.50
2018-01-08T11:35:41.534Z,16.50
2018-01-08T11:36:44.544Z,16.00
2018-01-08T11:37:47.566Z,18.50
2018-01-08T11:38:50.614Z,18.00
2018-01-08T11:39:53.637Z,25.50
2018-01-08T11:40:56.756Z,14.00
2018-01-08T11:42:00.245Z,18.50
2018-01-08T11:43:03.381Z,18.00
2018-01-08T11:44:06.424Z,16.50
2018-01-08T11:45:09.392Z,22.50
2018-01-08T11:46:12.355Z,19.00
2018-01-08T11:47:16.085Z,18.00
2018-01-08T11:48:19.506Z,16.00
2018-01-08T11:49:22.638Z,16.00
2018-01-08T11:50:25.689Z,17.50
2018-01-08T11:51:28.903Z,15.00
2018-01-08T11:52:31.887Z,19.00
2018-01-08T11:53:35.707Z,18.00
2018-01-08T11:54:39.161Z,20.00
2018-01-08T11:55:42.160Z,24.00
2018-01-08T11:56:45.103Z,15.50
2018-01-08T11:57:48.163Z,15.50
2018-01-08T11:58:51.196Z,20.00
2018-01-08T11:59:54.777Z,21.50
2018-01-08T12:00:58.049Z,24.00
2018-01-08T12:02:01.061Z,18.50
2018-01-08T12:03:04.042Z,19.00
2018-01-08T12:04:07.031Z,18.00
2018-01-08T12:05:10.016Z,19.00
2018-01-08T12:06:12.961Z,19.50
2018-01-08T12:07:16.393Z,15.00
2018-01-08T12:08:19.328Z,17.50
2018-01-08T12:09:22.314Z,20.50
2018-01-08T12:10:25.271Z,23.00
2018-01-08T12:11:28.256Z,19.00
2018-01-08T12:12:31.251Z,19.50
2018-01-08T12:13:35.247Z,18.00
2018-01-08T12:14:38.724Z,18.00
2018-01-08T12:15:42.078Z,23.50
2018-01-08T12:16:45.641Z,20.00
2018-01-08T12:17:49.153Z,17.50
2018-01-08T12:18:52.720Z,21.50
2018-01-08T12:19:56.661Z,23.50
2018-01-08T12:21:00.138Z,15.00
2018-01-08T12:22:03.497Z,20.00
2018-01-08T12:23:07.099Z,19.00
2018-01-08T12:24:10.389Z,23.00
2018-01-08T12:25:14.089Z,21.00
2018-01-08T12:26:18.000Z,20.50
2018-01-08T12:27:21.606Z,16.00
2018-01-08T12:28:24.870Z,17.00
2018-01-08T12:29:28.287Z,19.00
2018-01-08T12:30:31.589Z,19.00
2018-01-08T12:31:34.939Z,20.00
2018-01-08T12:32:38.694Z,16.00
2018-01-08T12:33:42.147Z,16.00
2018-01-08T12:34:45.486Z,17.50
2018-01-08T12:35:48.951Z,15.50
2018-01-08T12:36:52.673Z,19.50
2018-01-08T12:37:56.250Z,19.00
2018-01-08T12:39:00.029Z,20.00
2018-01-08T12:40:03.573Z,25.50
2018-01-08T20:08:59.589Z,20.50
2018-01-08T20:10:04.895Z,22.00
2018-01-08T20:11:09.965Z,18.50
2018-01-08T20:12:15.168Z,15.50
2018-01-08T20:13:20.326Z,22.00
2018-01-08T20:14:25.455Z,21.00
2018-01-08T20:15:30.751Z,18.50
2018-01-08T20:16:35.846Z,20.00
2018-01-08T20:17:42.353Z,22.00
2018-01-08T20:18:47.302Z,16.00
2018-01-08T20:19:52.498Z,26.00
2018-01-08T20:20:57.322Z,19.50
2018-01-08T20:22:03.541Z,23.50
2018-01-08T20:23:10.145Z,25.50
2018-01-08T20:24:15.660Z,22.00
2018-01-08T20:25:21.016Z,25.50
2018-01-08T20:26:26.123Z,23.50
2018-01-08T20:27:32.854Z,23.00
2018-01-08T20:28:37.909Z,22.00
2018-01-08T20:29:43.633Z,21.00
2018-01-08T20:30:49.863Z,19.50
2018-01-08T20:31:55.159Z,22.00
2018-01-08T20:33:01.027Z,19.00
2018-01-08T20:34:08.330Z,19.00
2018-01-08T20:35:13.574Z,20.00
2018-01-08T20:36:18.392Z,21.00
2018-01-08T20:37:23.451Z,20.50
2018-01-08T20:38:28.653Z,19.50
2018-01-08T20:39:33.144Z,18.00
2018-01-08T20:40:37.799Z,21.50
2018-01-08T20:41:43.747Z,19.50
2018-01-08T20:42:48.800Z,18.00
2018-01-08T20:43:53.939Z,19.00
2018-01-08T20:44:59.111Z,15.50
2018-01-08T20:46:04.342Z,20.50
2018-01-08T20:47:09.339Z,16.50
2018-01-08T20:48:14.054Z,22.50
2018-01-08T20:49:17.852Z,23.50
2018-01-08T20:50:22.435Z,20.00
2018-01-08T20:51:28.446Z,20.50
2018-01-08T20:52:32.863Z,17.00
2018-01-08T20:53:38.402Z,23.00
2018-01-08T20:54:44.546Z,28.00
2018-01-08T20:55:49.250Z,30.50
2018-01-08T20:56:54.721Z,18.00
2018-01-08T20:57:59.609Z,16.00
2018-01-08T20:59:04.800Z,15.50
2018-01-08T21:00:08.927Z,18.00
2018-01-08T21:01:14.423Z,19.50
2018-01-08T21:02:18.821Z,21.00
2018-01-08T21:03:22.798Z,24.50
2018-01-08T21:04:27.107Z,19.50
2018-01-08T21:05:32.293Z,20.50
2018-01-08T21:06:37.685Z,24.00